createdAt,value
2019-01-11T00:03:43.158Z,27.40
2019-01-11T00:23:41.568Z,27.33
2019-01-11T00:43:51.080Z,26.97
2019-01-11T01:04:00.538Z,31.94
2019-01-11T01:24:12.370Z,27.72
2019-01-11T01:44:11.900Z,30.43
2019-01-11T02:04:21.356Z,25.79
2019-01-11T02:24:30.881Z,21.67
2019-01-11T02:44:40.309Z,20.46
2019-01-11T03:04:52.035Z,19.30
2019-01-11T03:24:51.554Z,20.07
2019-01-11T03:45:01.087Z,21.56
2019-01-11T04:05:12.837Z,19.82
2019-01-11T04:25:12.312Z,19.78
2019-01-11T04:45:22.686Z,17.37
2019-01-11T05:05:22.206Z,18.75
2019-01-11T05:25:33.923Z,16.67
2019-01-11T05:45:33.480Z,18.11
2019-01-11T06:05:43.081Z,19.74
2019-01-11T06:25:52.703Z,20.31
2019-01-11T06:46:02.059Z,20.38
2019-01-11T07:06:11.692Z,20.83
2019-01-11T07:26:21.272Z,16.52
2019-01-11T07:46:30.761Z,21.54
2019-01-11T08:06:40.153Z,19.48
2019-01-11T08:26:49.692Z,22.60
2019-01-11T08:46:59.338Z,25.65
2019-01-11T09:07:11.211Z,26.18
2019-01-11T09:27:13.047Z,23.59
2019-01-11T09:47:12.594Z,21.50
2019-01-11T10:07:22.156Z,22.60
2019-01-11T10:27:31.681Z,20.22
2019-01-11T10:47:41.189Z,20.33
2019-01-11T11:07:53.032Z,25.57
2019-01-11T11:27:52.577Z,27.30
2019-01-11T11:48:02.164Z,24.80
2019-01-11T12:08:12.325Z,26.04
2019-01-11T12:28:11.982Z,23.81
2019-01-11T12:48:22.558Z,23.81
2019-01-11T13:08:22.064Z,26.22
2019-01-11T13:28:33.943Z,28.11
2019-01-11T13:48:33.521Z,30.79
2019-01-11T14:08:43.105Z,27.42
2019-01-11T14:28:52.735Z,23.23
2019-01-11T14:49:02.245Z,20.63
2019-01-11T15:09:11.757Z,21.59
2019-01-11T15:29:21.517Z,17.77
2019-01-11T15:49:34.727Z,21.36
2019-01-11T16:09:35.393Z,21.63
2019-01-11T16:29:37.501Z,19.81
2019-01-11T16:49:37.036Z,20.62
2019-01-11T17:09:46.800Z,21.72
2019-01-11T17:29:56.389Z,21.53
2019-01-11T17:50:05.998Z,20.59
2019-01-11T18:10:14.384Z,20.85
2019-01-11T18:30:23.950Z,20.07
2019-01-11T18:50:41.991Z,23.32
2019-01-11T19:10:35.928Z,18.54
2019-01-11T19:30:51.116Z,19.74
2019-01-11T19:50:52.959Z,20.54
2019-01-11T20:10:52.440Z,18.13
2019-01-11T20:31:04.325Z,17.09
2019-01-11T20:51:03.924Z,15.16
2019-01-11T21:11:13.432Z,14.71
2019-01-11T21:31:25.305Z,14.70
2019-01-11T21:51:24.805Z,13.47
2019-01-11T22:11:34.192Z,12.12
2019-01-11T22:31:48.308Z,13.91
2019-01-11T22:51:47.826Z,14.56
2019-01-11T23:11:57.350Z,14.75
2019-01-11T23:32:06.888Z,16.00
2019-01-11T23:52:18.733Z,16.77
